Time;durP1;ratioP1;P1;durP2;ratioP2;P2;SDS_P1;SDS_P2;PMS_P1;PMS_P2;Temp;Humidity;BMP_temperature;BMP_pressure;BME280_temperature;BME280_humidity;BME280_pressure;Samples;Min_cycle;Max_cycle;Signal;HPM_P1;HPM_P2
2022/06/08 00:01:48;;;;;;;10.07;4.93;;;11.10;99.90;;;;;;5047100;28;20150;-60
2022/06/08 00:04:15;;;;;;;9.70;3.95;;;11.10;99.90;;;;;;5052287;28;20072;-60
2022/06/08 00:06:41;;;;;;;12.02;5.22;;;11.00;99.90;;;;;;5052671;28;20561;-60
2022/06/08 00:09:07;;;;;;;12.20;5.63;;;11.00;99.90;;;;;;5054344;28;20976;-60
2022/06/08 00:11:33;;;;;;;10.68;5.00;;;11.00;99.90;;;;;;5051484;28;20045;-59
2022/06/08 00:13:59;;;;;;;9.60;4.85;;;11.00;99.90;;;;;;5037100;28;20498;-60
2022/06/08 00:16:24;;;;;;;10.25;5.10;;;11.00;99.90;;;;;;5051521;28;20521;-60
2022/06/08 00:18:50;;;;;;;7.97;4.55;;;11.00;99.90;;;;;;5049336;28;20055;-60
2022/06/08 00:21:18;;;;;;;10.30;5.20;;;11.00;99.90;;;;;;5048961;28;20048;-60
2022/06/08 00:23:44;;;;;;;8.43;5.28;;;11.00;99.90;;;;;;5047431;28;20059;-60
2022/06/08 00:26:11;;;;;;;13.35;5.25;;;11.00;99.90;;;;;;5053587;28;20522;-59
2022/06/08 00:28:37;;;;;;;11.57;5.70;;;11.00;99.90;;;;;;5058756;28;20051;-60
2022/06/08 00:31:03;;;;;;;11.77;5.43;;;11.00;99.90;;;;;;5053770;28;20036;-60
2022/06/08 00:33:29;;;;;;;10.52;5.95;;;10.90;99.90;;;;;;5047603;28;20376;-59
2022/06/08 00:35:55;;;;;;;9.88;6.03;;;10.90;99.90;;;;;;5055033;28;20043;-60
2022/06/08 00:38:21;;;;;;;11.32;5.78;;;10.90;99.90;;;;;;5053684;28;20037;-60
2022/06/08 00:41:14;;;;;;;10.93;5.43;;;10.90;99.90;;;;;;5053331;28;20091;-60
2022/06/08 00:43:40;;;;;;;7.93;5.53;;;10.90;99.90;;;;;;5049391;28;20063;-60
2022/06/08 00:46:08;;;;;;;17.70;5.80;;;10.80;99.90;;;;;;5051541;28;20502;-60
2022/06/08 00:48:42;;;;;;;11.98;5.78;;;10.80;99.90;;;;;;5065014;28;20048;-60
2022/06/08 00:51:08;;;;;;;9.57;5.90;;;10.80;99.90;;;;;;5048490;28;20095;-60
2022/06/08 00:53:39;;;;;;;12.93;7.00;;;10.80;99.90;;;;;;5054600;28;20052;-59
2022/06/08 00:56:10;;;;;;;13.30;6.00;;;10.80;99.90;;;;;;5054453;28;20036;-60
2022/06/08 00:58:37;;;;;;;14.40;6.40;;;10.80;99.90;;;;;;5052880;28;20041;-59
2022/06/08 01:01:04;;;;;;;13.00;6.70;;;10.80;99.90;;;;;;5050280;28;20052;-60
2022/06/08 01:03:30;;;;;;;13.02;6.40;;;10.80;99.90;;;;;;5047728;28;20061;-60
2022/06/08 01:06:05;;;;;;;11.10;6.10;;;10.80;99.90;;;;;;5054407;28;20053;-60
2022/06/08 01:08:40;;;;;;;12.95;6.38;;;10.70;99.90;;;;;;5051187;28;20053;-60
2022/06/08 01:11:12;;;;;;;13.00;5.95;;;10.80;99.90;;;;;;5055330;28;20047;-60
2022/06/08 01:13:39;;;;;;;11.40;5.80;;;10.70;99.90;;;;;;5051101;28;20048;-59
2022/06/08 01:16:08;;;;;;;15.48;6.45;;;10.70;99.90;;;;;;5050904;28;20083;-60
2022/06/08 01:18:35;;;;;;;11.07;6.32;;;10.70;99.90;;;;;;5053448;28;20391;-59
2022/06/08 01:21:20;;;;;;;13.25;7.38;;;10.70;99.90;;;;;;5049989;28;20049;-59
2022/06/08 01:23:48;;;;;;;14.45;7.00;;;10.70;99.90;;;;;;5051152;28;20053;-60
2022/06/08 01:26:23;;;;;;;11.95;6.57;;;10.70;99.90;;;;;;5053266;28;20041;-60
2022/06/08 01:29:08;;;;;;;11.95;6.57;;;10.70;99.90;;;;;;5050796;28;20045;-60
2022/06/08 01:31:56;;;;;;;10.68;6.43;;;10.70;99.90;;;;;;5050629;28;20040;-60
2022/06/08 01:34:46;;;;;;;16.17;6.43;;;10.70;99.90;;;;;;5050326;28;20052;-60
2022/06/08 01:37:47;;;;;;;15.65;6.43;;;10.70;99.90;;;;;;5050823;28;20051;-59
2022/06/08 01:40:52;;;;;;;10.63;6.50;;;10.70;99.90;;;;;;5020344;28;20078;-60
2022/06/08 01:43:40;;;;;;;13.60;6.65;;;10.70;99.90;;;;;;5050418;28;20526;-59
2022/06/08 01:46:21;;;;;;;11.63;6.53;;;10.70;99.90;;;;;;5057744;28;20048;-60
2022/06/08 01:48:51;;;;;;;12.32;6.65;;;10.60;99.90;;;;;;5053117;28;20075;-60
2022/06/08 01:51:19;;;;;;;11.52;7.07;;;10.60;99.90;;;;;;5053664;28;20127;-60
2022/06/08 01:54:00;;;;;;;11.93;6.80;;;10.60;99.90;;;;;;5058136;28;20856;-59
2022/06/08 01:56:32;;;;;;;14.90;7.47;;;10.60;99.90;;;;;;5046035;28;20044;-60
2022/06/08 01:59:25;;;;;;;11.70;6.75;;;10.60;99.90;;;;;;5055988;28;20044;-60
2022/06/08 02:01:58;;;;;;;15.13;7.80;;;10.60;99.90;;;;;;5052600;28;20117;-60
2022/06/08 02:04:33;;;;;;;15.02;6.75;;;10.60;99.90;;;;;;5055449;28;20093;-60
2022/06/08 02:07:16;;;;;;;13.00;7.20;;;10.50;99.90;;;;;;5053089;28;20040;-60
2022/06/08 02:09:57;;;;;;;10.05;6.88;;;10.60;99.90;;;;;;5055208;28;20048;-60
2022/06/08 02:12:23;;;;;;;12.77;6.80;;;10.60;99.90;;;;;;5053635;28;20143;-60
2022/06/08 02:14:56;;;;;;;12.20;6.97;;;10.50;99.90;;;;;;5050397;28;20126;-59
2022/06/08 02:17:41;;;;;;;10.70;6.78;;;10.50;99.90;;;;;;5051987;28;20070;-60
2022/06/08 02:20:25;;;;;;;13.55;7.35;;;10.60;99.90;;;;;;5056683;28;20509;-59
2022/06/08 02:23:00;;;;;;;14.63;8.02;;;10.60;99.90;;;;;;5054408;28;20071;-60
2022/06/08 02:25:44;;;;;;;11.27;7.10;;;10.60;99.90;;;;;;5056081;28;20052;-59
2022/06/08 02:28:19;;;;;;;10.70;6.50;;;10.60;99.90;;;;;;5053996;28;20044;-60
2022/06/08 02:30:51;;;;;;;13.27;6.63;;;10.50;99.90;;;;;;5056308;28;20044;-59
2022/06/08 02:36:24;;;;;;;10.82;6.90;;;10.50;99.90;;;;;;5047944;28;20052;-59
2022/06/08 02:39:14;;;;;;;16.73;7.47;;;10.50;99.90;;;;;;5057900;28;20144;-59
2022/06/08 02:41:43;;;;;;;13.73;7.28;;;10.60;99.90;;;;;;5048086;28;20057;-60
2022/06/08 02:44:13;;;;;;;10.52;7.07;;;10.60;99.90;;;;;;5054826;28;20119;-60
2022/06/08 02:46:56;;;;;;;11.48;7.38;;;10.60;99.90;;;;;;5051249;28;20155;-60
2022/06/08 02:49:22;;;;;;;14.57;7.72;;;10.60;99.90;;;;;;5054277;28;20089;-60
2022/06/08 02:51:51;;;;;;;15.25;7.90;;;10.60;99.90;;;;;;5050116;28;20041;-59
2022/06/08 02:54:21;;;;;;;15.85;7.90;;;10.60;99.90;;;;;;5056499;28;20052;-60
2022/06/08 02:57:07;;;;;;;12.48;7.43;;;10.60;99.90;;;;;;5055454;28;22047;-60
2022/06/08 02:59:49;;;;;;;17.52;8.80;;;10.60;99.90;;;;;;5068761;28;20044;-60
2022/06/08 03:02:24;;;;;;;20.30;8.73;;;10.60;99.90;;;;;;5054318;28;20059;-60
2022/06/08 03:05:22;;;;;;;13.07;8.82;;;10.60;99.90;;;;;;5052879;28;20938;-59
2022/06/08 03:08:04;;;;;;;18.00;9.98;;;10.60;99.90;;;;;;5036120;28;20894;-59
2022/06/08 03:10:34;;;;;;;16.20;9.35;;;10.60;99.90;;;;;;5048872;28;20052;-60
2022/06/08 03:13:30;;;;;;;18.88;11.18;;;10.60;99.90;;;;;;5038716;28;20651;-59
2022/06/08 03:16:00;;;;;;;17.67;10.68;;;10.60;99.90;;;;;;5052843;28;20154;-59
2022/06/08 03:18:27;;;;;;;18.58;10.32;;;10.60;99.90;;;;;;5052375;28;20095;-60
2022/06/08 03:20:55;;;;;;;17.92;11.07;;;10.60;99.90;;;;;;5054779;28;20052;-59
2022/06/08 03:23:21;;;;;;;20.83;10.43;;;10.60;99.90;;;;;;5048558;28;20052;-60
2022/06/08 03:25:48;;;;;;;15.82;10.98;;;10.60;99.90;;;;;;5055498;28;20052;-59
2022/06/08 03:28:15;;;;;;;21.40;11.75;;;10.70;99.90;;;;;;5057520;28;20048;-60
2022/06/08 03:30:42;;;;;;;16.05;10.63;;;10.70;99.90;;;;;;5050797;28;23122;-60
2022/06/08 03:33:08;;;;;;;21.85;11.73;;;10.70;99.90;;;;;;5052612;28;20048;-60
2022/06/08 03:35:35;;;;;;;19.58;11.45;;;10.70;99.90;;;;;;5056309;28;20467;-59
2022/06/08 03:38:01;;;;;;;18.33;13.05;;;10.70;99.90;;;;;;5047578;28;20510;-59
2022/06/08 03:40:27;;;;;;;20.27;12.55;;;10.70;99.90;;;;;;5063343;28;20097;-60
2022/06/08 03:42:54;;;;;;;22.33;12.75;;;10.70;99.90;;;;;;5053368;28;20056;-59
2022/06/08 03:45:19;;;;;;;22.48;13.63;;;10.70;99.90;;;;;;5054648;28;20154;-59
2022/06/08 03:47:50;;;;;;;20.27;13.63;;;10.70;99.90;;;;;;5055388;28;20520;-60
2022/06/08 03:50:21;;;;;;;19.42;13.70;;;10.70;99.90;;;;;;5053806;28;20052;-59
2022/06/08 03:52:58;;;;;;;24.50;14.77;;;10.80;99.90;;;;;;5053040;28;20041;-59
2022/06/08 03:55:28;;;;;;;24.88;13.98;;;10.80;99.90;;;;;;5052271;28;20191;-59
2022/06/08 03:57:54;;;;;;;23.55;14.00;;;10.80;99.90;;;;;;5055124;28;20044;-60
2022/06/08 04:00:22;;;;;;;20.55;14.18;;;10.80;99.90;;;;;;5056299;28;20044;-60
2022/06/08 04:02:49;;;;;;;24.88;15.00;;;10.90;99.90;;;;;;5059298;28;20044;-58
2022/06/08 04:05:16;;;;;;;25.17;14.43;;;10.90;99.90;;;;;;5054139;28;21160;-59
2022/06/08 04:07:43;;;;;;;23.00;14.05;;;10.90;99.90;;;;;;5054787;28;20131;-60
2022/06/08 04:10:10;;;;;;;26.80;14.50;;;11.00;99.90;;;;;;5053584;28;20044;-60
2022/06/08 04:12:36;;;;;;;22.75;14.00;;;11.00;99.90;;;;;;5047999;28;20048;-60
2022/06/08 04:15:03;;;;;;;20.10;13.68;;;11.00;99.90;;;;;;5048976;28;20082;-60
2022/06/08 04:17:29;;;;;;;19.55;12.35;;;11.10;99.90;;;;;;5053715;28;20120;-60
2022/06/08 04:19:55;;;;;;;19.08;12.60;;;11.10;99.90;;;;;;5052399;28;20040;-60
2022/06/08 04:22:22;;;;;;;18.98;12.75;;;11.20;99.90;;;;;;5049863;28;20107;-60
2022/06/08 04:24:49;;;;;;;18.13;12.27;;;11.20;99.90;;;;;;5047709;28;20123;-60
2022/06/08 04:27:15;;;;;;;19.85;12.27;;;11.30;99.90;;;;;;5050571;28;20041;-59
2022/06/08 04:29:43;;;;;;;22.17;12.10;;;11.30;99.90;;;;;;5056310;28;20044;-59
2022/06/08 04:32:10;;;;;;;19.30;11.65;;;11.40;99.90;;;;;;5058186;28;20049;-60
2022/06/08 04:34:41;;;;;;;18.65;12.18;;;11.40;99.90;;;;;;5053146;28;20055;-59
2022/06/08 04:37:07;;;;;;;19.52;12.57;;;11.50;99.90;;;;;;5055852;28;20189;-59
2022/06/08 04:39:32;;;;;;;18.38;12.32;;;11.60;99.90;;;;;;5050787;28;20052;-60
2022/06/08 04:41:58;;;;;;;22.98;13.38;;;11.70;99.90;;;;;;5053125;28;20514;-60
2022/06/08 04:44:25;;;;;;;21.75;13.65;;;11.80;99.90;;;;;;5052107;28;20131;-60
2022/06/08 04:46:51;;;;;;;18.88;12.48;;;11.90;99.90;;;;;;5030360;28;20041;-59
2022/06/08 04:49:17;;;;;;;21.58;14.30;;;12.00;99.90;;;;;;5053995;28;20062;-60
2022/06/08 04:51:43;;;;;;;20.17;14.25;;;12.00;99.90;;;;;;5054015;28;20044;-60
2022/06/08 04:54:09;;;;;;;20.98;14.77;;;12.10;99.90;;;;;;5053790;28;20102;-59
2022/06/08 04:56:34;;;;;;;24.48;15.45;;;12.20;99.90;;;;;;5029470;28;20057;-60
2022/06/08 04:59:01;;;;;;;24.00;14.93;;;12.20;99.90;;;;;;5034648;28;20044;-59
2022/06/08 05:01:27;;;;;;;18.63;14.40;;;12.30;99.90;;;;;;5054628;28;20124;-59
2022/06/08 05:03:53;;;;;;;23.65;15.43;;;12.40;99.90;;;;;;5052621;28;20147;-60
2022/06/08 05:06:20;;;;;;;21.35;14.95;;;12.50;99.90;;;;;;5060140;28;20048;-59
2022/06/08 05:08:46;;;;;;;23.30;15.70;;;12.50;99.90;;;;;;5050965;28;20041;-60
2022/06/08 05:11:14;;;;;;;25.40;16.02;;;12.60;99.90;;;;;;5051384;28;20047;-60
2022/06/08 05:13:40;;;;;;;23.48;15.95;;;12.60;99.90;;;;;;5048280;28;20049;-60
2022/06/08 05:16:07;;;;;;;23.55;15.75;;;12.60;99.90;;;;;;5052531;28;20108;-59
2022/06/08 05:18:34;;;;;;;25.88;15.88;;;12.60;99.90;;;;;;5049645;28;20048;-60
2022/06/08 05:21:00;;;;;;;26.40;17.27;;;12.70;99.90;;;;;;5050622;28;20404;-59
2022/06/08 05:23:33;;;;;;;25.58;17.83;;;12.70;99.90;;;;;;5054293;28;20495;-60
2022/06/08 05:25:59;;;;;;;30.85;17.48;;;12.70;99.90;;;;;;5054777;28;20055;-58
2022/06/08 05:28:25;;;;;;;23.65;17.05;;;12.70;99.90;;;;;;5051982;28;20049;-60
2022/06/08 05:30:53;;;;;;;27.88;18.10;;;12.80;99.90;;;;;;5051983;28;20060;-59
2022/06/08 05:33:20;;;;;;;25.55;17.80;;;12.80;99.90;;;;;;5057340;28;20545;-60
2022/06/08 05:35:45;;;;;;;26.52;18.30;;;12.90;99.90;;;;;;5066580;28;20072;-60
2022/06/08 05:38:12;;;;;;;25.40;17.58;;;12.90;99.90;;;;;;5058984;28;20472;-59
2022/06/08 05:40:39;;;;;;;26.40;18.45;;;12.90;99.90;;;;;;5047464;28;20048;-60
2022/06/08 05:43:08;;;;;;;28.73;19.10;;;13.00;99.90;;;;;;5049852;28;20083;-60
2022/06/08 05:45:34;;;;;;;29.55;18.50;;;13.00;99.90;;;;;;5053546;28;21174;-60
2022/06/08 05:48:01;;;;;;;30.30;19.83;;;13.00;99.90;;;;;;5054766;28;20056;-60
2022/06/08 05:50:28;;;;;;;31.20;19.20;;;13.10;99.90;;;;;;5057349;28;20076;-60
2022/06/08 05:52:54;;;;;;;31.40;19.98;;;13.10;99.90;;;;;;5056438;28;20045;-59
2022/06/08 05:55:22;;;;;;;28.55;19.55;;;13.20;99.90;;;;;;5058627;28;20117;-60
2022/06/08 05:57:48;;;;;;;29.23;19.77;;;13.20;99.90;;;;;;5054102;28;20044;-59
2022/06/08 06:00:17;;;;;;;32.47;21.02;;;13.30;99.90;;;;;;5064486;28;20036;-59
2022/06/08 06:02:43;;;;;;;25.77;19.05;;;13.30;99.90;;;;;;5057618;28;20044;-60
2022/06/08 06:05:11;;;;;;;28.95;20.02;;;13.40;99.90;;;;;;5060845;28;20087;-60
2022/06/08 06:07:39;;;;;;;29.75;19.27;;;13.40;99.90;;;;;;5056032;28;20048;-60
2022/06/08 06:10:05;;;;;;;27.75;19.25;;;13.50;99.90;;;;;;5051834;28;20052;-60
2022/06/08 06:12:31;;;;;;;29.48;19.60;;;13.50;99.90;;;;;;5041858;28;20139;-59
2022/06/08 06:15:01;;;;;;;29.33;18.90;;;13.60;99.90;;;;;;5052842;28;20048;-65
2022/06/08 06:17:28;;;;;;;32.30;19.23;;;13.70;99.90;;;;;;5044690;28;20049;-65
2022/06/08 06:19:55;;;;;;;29.02;19.27;;;13.80;99.90;;;;;;5063469;28;20048;-64
2022/06/08 06:22:21;;;;;;;26.20;17.92;;;13.90;99.90;;;;;;5059911;28;20063;-66
2022/06/08 06:24:47;;;;;;;28.08;18.05;;;14.00;99.90;;;;;;5046187;28;20045;-65
2022/06/08 06:27:12;;;;;;;28.10;19.40;;;14.10;99.90;;;;;;5050106;28;20119;-66
2022/06/08 06:29:38;;;;;;;32.08;18.95;;;14.10;99.90;;;;;;5059578;28;20044;-65
2022/06/08 06:32:07;;;;;;;23.83;17.65;;;14.20;99.90;;;;;;5056724;28;20060;-64
2022/06/08 06:34:33;;;;;;;25.90;19.13;;;14.20;99.90;;;;;;5038877;28;20091;-64
2022/06/08 06:36:59;;;;;;;26.10;17.90;;;14.30;99.90;;;;;;5055843;28;20494;-64
2022/06/08 06:39:26;;;;;;;26.85;17.35;;;14.30;99.90;;;;;;5061984;28;20113;-65
2022/06/08 06:41:53;;;;;;;25.42;17.75;;;14.40;99.90;;;;;;5046128;28;20052;-64
2022/06/08 06:44:20;;;;;;;25.33;18.00;;;14.50;99.90;;;;;;5052808;28;20137;-64
2022/06/08 06:46:46;;;;;;;29.27;18.25;;;14.60;99.90;;;;;;5060972;28;20097;-65
2022/06/08 06:49:12;;;;;;;23.67;16.42;;;14.60;99.90;;;;;;5059995;28;20033;-65
2022/06/08 06:51:38;;;;;;;28.90;17.08;;;14.70;99.90;;;;;;5031604;28;20511;-66
2022/06/08 06:54:08;;;;;;;22.45;16.85;;;14.80;99.90;;;;;;5042969;28;20051;-64
2022/06/08 06:56:34;;;;;;;25.75;17.90;;;14.80;99.90;;;;;;5052513;28;20127;-64
2022/06/08 06:59:02;;;;;;;27.35;18.55;;;14.90;99.90;;;;;;5059954;28;20079;-65
2022/06/08 07:01:28;;;;;;;25.35;17.10;;;15.00;99.90;;;;;;5058484;28;20491;-65
2022/06/08 07:03:54;;;;;;;27.40;17.98;;;15.20;99.90;;;;;;5045295;28;20059;-64
2022/06/08 07:06:20;;;;;;;20.75;15.98;;;15.40;99.90;;;;;;5059710;28;20052;-64
2022/06/08 07:08:46;;;;;;;25.25;16.92;;;15.50;99.90;;;;;;5055989;28;20452;-65
2022/06/08 07:11:35;;;;;;;20.30;15.88;;;15.60;99.90;;;;;;5037574;28;20048;-64
2022/06/08 07:14:03;;;;;;;21.48;15.30;;;15.70;99.90;;;;;;5060098;28;20058;-64
2022/06/08 07:16:30;;;;;;;20.30;14.70;;;15.80;99.90;;;;;;5036897;28;20044;-63
2022/06/08 07:18:56;;;;;;;19.70;13.60;;;15.90;99.90;;;;;;5029459;28;20479;-66
2022/06/08 07:21:21;;;;;;;25.08;13.88;;;16.00;99.90;;;;;;5043177;28;20055;-65
2022/06/08 07:23:48;;;;;;;19.55;13.55;;;16.10;99.90;;;;;;5042405;28;20040;-64
2022/06/08 07:26:14;;;;;;;19.75;13.35;;;16.20;99.90;;;;;;5041495;28;20094;-64
2022/06/08 07:28:43;;;;;;;19.35;13.00;;;16.20;99.90;;;;;;5025076;28;20048;-64
2022/06/08 07:31:11;;;;;;;21.80;12.20;;;16.30;99.90;;;;;;5057191;28;20066;-65
2022/06/08 07:33:38;;;;;;;16.65;11.65;;;16.30;99.90;;;;;;5041289;28;20399;-65
2022/06/08 07:36:04;;;;;;;15.30;11.13;;;16.40;99.90;;;;;;5048250;28;20499;-63
2022/06/08 07:38:31;;;;;;;15.60;10.10;;;16.40;99.90;;;;;;5055317;28;20495;-63
2022/06/08 07:40:57;;;;;;;12.57;9.20;;;16.50;99.90;;;;;;5057260;28;20060;-64
2022/06/08 07:43:23;;;;;;;13.38;8.77;;;16.60;99.90;;;;;;5030610;28;20514;-64
2022/06/08 07:45:50;;;;;;;14.15;9.15;;;16.70;99.90;;;;;;5027065;28;20127;-66
2022/06/08 07:51:00;;;;;;;11.88;9.32;;;16.70;99.90;;;;;;5045747;28;20436;-63
2022/06/08 07:53:26;;;;;;;13.50;8.85;;;16.80;99.90;;;;;;5056831;28;20060;-65
2022/06/08 07:55:52;;;;;;;11.40;8.43;;;16.80;99.90;;;;;;5043984;28;20052;-63
2022/06/08 07:58:18;;;;;;;10.70;8.25;;;16.80;99.90;;;;;;5052691;28;20119;-66
2022/06/08 08:00:47;;;;;;;9.27;8.07;;;16.90;99.90;;;;;;5043212;28;20600;-66
2022/06/08 08:03:17;;;;;;;11.13;7.75;;;16.80;99.90;;;;;;5038504;28;20690;-63
2022/06/08 08:05:45;;;;;;;10.73;7.70;;;16.90;99.90;;;;;;5041928;28;20110;-64
2022/06/08 08:08:12;;;;;;;12.30;8.07;;;16.90;99.90;;;;;;5045374;28;20049;-63
2022/06/08 08:10:38;;;;;;;12.35;8.00;;;16.90;99.90;;;;;;5062420;28;20048;-64
2022/06/08 08:13:05;;;;;;;9.68;7.53;;;17.00;99.90;;;;;;5026455;28;20048;-64
2022/06/08 08:15:31;;;;;;;11.15;7.75;;;17.10;99.90;;;;;;5061966;28;20517;-66
2022/06/08 08:17:56;;;;;;;9.93;7.68;;;17.20;99.90;;;;;;5057924;28;20048;-64
2022/06/08 08:20:24;;;;;;;9.70;7.45;;;17.30;99.90;;;;;;5057947;28;20055;-63
2022/06/08 08:22:50;;;;;;;12.27;7.35;;;17.40;99.90;;;;;;5060401;28;20560;-64
2022/06/08 08:25:18;;;;;;;10.30;6.68;;;17.50;99.90;;;;;;5046048;28;20151;-63
2022/06/08 08:27:45;;;;;;;7.82;5.82;;;17.70;99.90;;;;;;5062202;28;20048;-66
2022/06/08 08:30:13;;;;;;;8.48;5.40;;;17.80;99.90;;;;;;5061795;28;20059;-65
2022/06/08 08:32:40;;;;;;;7.32;5.22;;;17.90;99.90;;;;;;5053984;28;20048;-65
2022/06/08 08:35:08;;;;;;;6.97;4.32;;;18.00;99.90;;;;;;5024262;28;20060;-65
2022/06/08 08:37:33;;;;;;;5.25;3.95;;;18.00;99.90;;;;;;5042120;28;20113;-63
2022/06/08 08:39:59;;;;;;;8.68;4.30;;;18.00;99.90;;;;;;5039035;28;20805;-63
2022/06/08 08:42:25;;;;;;;6.32;4.03;;;18.10;99.90;;;;;;5024658;28;20136;-65
2022/06/08 08:44:52;;;;;;;12.25;5.05;;;18.20;99.90;;;;;;5041455;28;20589;-66
2022/06/08 08:47:24;;;;;;;5.32;3.67;;;18.40;99.90;;;;;;5051863;28;20106;-63
2022/06/08 08:49:56;;;;;;;5.57;3.30;;;18.50;99.90;;;;;;5045877;28;20114;-64
2022/06/08 08:52:39;;;;;;;4.82;3.95;;;18.60;99.90;;;;;;5026222;28;20041;-63
2022/06/08 08:55:25;;;;;;;;;;;18.70;99.90;;;;;;5052129;28;20044;-64
2022/06/08 08:58:14;;;;;;;6.93;3.83;;;18.80;99.90;;;;;;5059978;28;19924;-64
2022/06/08 09:00:55;;;;;;;5.88;3.70;;;18.90;99.90;;;;;;5041741;28;20106;-63
2022/06/08 09:03:39;;;;;;;4.82;3.70;;;19.10;99.90;;;;;;5059171;28;20098;-63
2022/06/08 09:06:18;;;;;;;4.60;3.20;;;19.30;99.90;;;;;;5054616;28;20044;-64
2022/06/08 09:08:48;;;;;;;5.93;2.92;;;19.60;99.90;;;;;;5051947;28;20041;-65
2022/06/08 09:11:16;;;;;;;4.72;3.10;;;19.80;99.90;;;;;;5028656;28;20044;-65
2022/06/08 09:13:47;;;;;;;7.07;3.00;;;19.90;99.90;;;;;;5048311;28;20507;-64
2022/06/08 09:16:29;;;;;;;6.45;2.03;;;20.10;99.90;;;;;;5049164;28;20044;-64
2022/06/08 09:18:55;;;;;;;3.63;1.83;;;20.10;99.90;;;;;;5050538;28;20066;-64
2022/06/08 09:21:34;;;;;;;3.20;1.80;;;20.10;99.90;;;;;;5049948;28;20432;-65
2022/06/08 09:24:16;;;;;;;6.82;1.52;;;20.00;99.90;;;;;;5054459;28;20048;-63
2022/06/08 09:26:42;;;;;;;3.15;1.73;;;19.90;99.90;;;;;;5059828;28;20040;-64
2022/06/08 09:29:11;;;;;;;7.43;1.90;;;19.90;99.90;;;;;;5059402;28;20056;-66
2022/06/08 09:31:39;;;;;;;3.60;1.75;;;19.90;99.90;;;;;;5036273;28;20083;-63
2022/06/08 09:34:14;;;;;;;3.35;1.60;;;19.90;99.90;;;;;;5034299;28;20079;-64
2022/06/08 09:36:42;;;;;;;4.95;1.98;;;19.90;99.90;;;;;;5046349;28;20095;-64
2022/06/08 09:39:12;;;;;;;6.10;2.05;;;20.00;99.90;;;;;;5031424;28;20535;-64
2022/06/08 09:41:49;;;;;;;3.45;2.40;;;20.10;99.90;;;;;;5054210;28;20044;-66
2022/06/08 09:44:29;;;;;;;2.65;2.10;;;20.30;99.90;;;;;;5054040;28;20106;-64
2022/06/08 09:53:15;;;;;;;2.42;1.80;;;20.60;99.90;;;;;;5058955;28;20044;-64
2022/06/08 09:56:18;;;;;;;3.83;2.35;;;20.60;99.90;;;;;;5045255;28;20044;-64
2022/06/08 09:59:08;;;;;;;6.07;1.80;;;20.70;99.90;;;;;;5040256;28;20125;-64
2022/06/08 10:01:46;;;;;;;2.25;1.52;;;20.70;99.90;;;;;;5050310;28;20075;-64
2022/06/08 10:04:34;;;;;;;2.35;1.73;;;20.70;99.90;;;;;;5032266;28;20483;-63
2022/06/08 10:07:37;;;;;;;4.20;2.10;;;20.70;99.90;;;;;;5035125;28;20058;-64
2022/06/08 10:10:34;;;;;;;3.22;2.00;;;20.70;99.90;;;;;;5029337;28;20139;-63
2022/06/08 10:13:16;;;;;;;4.15;1.80;;;20.70;99.90;;;;;;5051733;28;20057;-62
2022/06/08 10:15:47;;;;;;;2.25;1.70;;;20.80;99.90;;;;;;5050695;28;20056;-63
2022/06/08 10:18:19;;;;;;;5.97;2.00;;;20.70;99.90;;;;;;5058363;28;20070;-63
2022/06/08 10:20:50;;;;;;;4.10;1.75;;;20.70;99.90;;;;;;5056287;28;20059;-64
2022/06/08 10:23:38;;;;;;;3.25;1.73;;;20.70;99.90;;;;;;5040514;28;20044;-66
2022/06/08 10:26:14;;;;;;;2.00;1.77;;;20.60;99.90;;;;;;5055065;28;20048;-64
2022/06/08 10:29:03;;;;;;;3.58;2.10;;;20.60;99.90;;;;;;5026035;28;20045;-65
2022/06/08 10:31:47;;;;;;;2.47;1.70;;;20.60;99.90;;;;;;5049052;28;20052;-63
2022/06/08 10:34:19;;;;;;;5.47;1.90;;;20.50;99.90;;;;;;5049353;28;20081;-63
2022/06/08 10:37:10;;;;;;;2.80;2.00;;;20.50;99.90;;;;;;5049026;28;24688;-65
2022/06/08 10:39:38;;;;;;;4.95;2.45;;;20.80;99.90;;;;;;5036412;28;20123;-65
2022/06/08 10:42:43;;;;;;;3.53;2.35;;;21.20;99.90;;;;;;5028647;28;20384;-63
2022/06/08 10:45:24;;;;;;;5.00;2.30;;;21.50;99.90;;;;;;5055578;28;20041;-65
2022/06/08 10:48:19;;;;;;;2.55;1.90;;;22.10;99.90;;;;;;5041335;28;20233;-63
2022/06/08 10:50:48;;;;;;;4.55;2.58;;;22.40;99.90;;;;;;5048139;28;20125;-64
2022/06/08 10:56:23;;;;;;;4.93;2.50;;;22.70;99.90;;;;;;5059869;28;20048;-64
2022/06/08 10:58:57;;;;;;;6.28;3.15;;;23.00;99.90;;;;;;5043608;28;20483;-64
2022/06/08 11:01:49;;;;;;;3.85;3.17;;;23.00;99.60;;;;;;5056858;28;20048;-63
2022/06/08 11:04:30;;;;;;;5.97;3.28;;;22.70;99.60;;;;;;5034890;28;20479;-63
2022/06/08 11:07:12;;;;;;;4.97;3.35;;;22.60;99.70;;;;;;5046538;28;20041;-66
2022/06/08 11:09:42;;;;;;;5.28;3.40;;;22.40;99.90;;;;;;5050812;28;20457;-64
2022/06/08 11:12:11;;;;;;;4.93;3.53;;;22.20;99.90;;;;;;5046357;28;20063;-64
2022/06/08 11:14:43;;;;;;;5.28;3.15;;;22.00;99.90;;;;;;5057340;28;20055;-64
2022/06/08 11:17:30;;;;;;;5.25;3.45;;;21.80;99.70;;;;;;5031852;28;20049;-63
2022/06/08 11:20:03;;;;;;;5.25;3.22;;;21.70;99.90;;;;;;5033365;28;20562;-63
2022/06/08 11:22:38;;;;;;;6.72;3.75;;;21.50;99.90;;;;;;5025288;28;20661;-64
2022/06/08 11:25:11;;;;;;;4.47;3.53;;;21.40;99.90;;;;;;5032899;28;20045;-62
2022/06/08 11:27:39;;;;;;;3.78;3.10;;;21.30;99.90;;;;;;5041026;28;20072;-65
2022/06/08 11:30:25;;;;;;;6.65;3.10;;;21.20;99.90;;;;;;5031625;28;20050;-64
2022/06/08 11:32:50;;;;;;;6.43;2.70;;;21.10;99.90;;;;;;5041104;28;20072;-63
2022/06/08 11:35:35;;;;;;;4.70;2.97;;;21.00;99.90;;;;;;5051000;28;20131;-64
2022/06/08 11:38:31;;;;;;;5.40;3.50;;;20.90;99.90;;;;;;5024882;28;20052;-65
2022/06/08 11:41:25;;;;;;;6.80;3.63;;;20.80;99.90;;;;;;5049090;28;20553;-64
2022/06/08 11:43:51;;;;;;;6.80;3.97;;;20.60;99.90;;;;;;5047973;28;20049;-64
2022/06/08 11:46:30;;;;;;;9.30;4.03;;;20.40;99.90;;;;;;5047993;28;20073;-64
2022/06/08 11:48:56;;;;;;;9.80;4.63;;;20.20;99.90;;;;;;5025732;28;20106;-65
2022/06/08 11:51:39;;;;;;;6.45;4.47;;;20.20;99.90;;;;;;5018774;28;20058;-64
2022/06/08 11:54:37;;;;;;;;;;;20.10;99.90;;;;;;5041206;28;20425;-64
2022/06/08 11:57:13;;;;;;;11.15;3.78;;;20.10;99.90;;;;;;5026670;28;20018;-65
2022/06/08 11:59:43;;;;;;;5.70;3.58;;;20.10;99.90;;;;;;5048216;28;20057;-64
2022/06/08 12:02:24;;;;;;;6.07;3.60;;;20.10;99.90;;;;;;5048338;28;20040;-63
2022/06/08 12:04:54;;;;;;;5.60;3.67;;;20.20;99.90;;;;;;5034969;28;20146;-64
2022/06/08 12:07:56;;;;;;;5.57;3.35;;;20.20;99.90;;;;;;5040997;28;20341;-64
2022/06/08 12:10:26;;;;;;;5.13;3.50;;;20.20;99.90;;;;;;5033274;28;20044;-64
2022/06/08 12:12:54;;;;;;;4.35;3.58;;;20.20;99.90;;;;;;5021781;28;20421;-64
2022/06/08 12:15:36;;;;;;;7.35;3.83;;;20.20;99.90;;;;;;5048480;28;20048;-63
2022/06/08 12:18:30;;;;;;;5.38;3.70;;;20.10;99.90;;;;;;5048867;28;20439;-64
2022/06/08 12:21:28;;;;;;;4.35;3.55;;;20.10;99.90;;;;;;5011674;28;20056;-62
2022/06/08 12:24:11;;;;;;;6.75;3.97;;;20.10;99.90;;;;;;5040579;28;20427;-65
2022/06/08 12:26:58;;;;;;;6.60;3.47;;;20.20;99.90;;;;;;5049410;28;20157;-65
2022/06/08 12:29:29;;;;;;;6.65;3.90;;;20.30;99.90;;;;;;5031813;28;20402;-66
2022/06/08 12:32:06;;;;;;;7.35;4.43;;;20.40;99.90;;;;;;5045298;28;20132;-63
2022/06/08 12:34:43;;;;;;;6.32;4.43;;;20.50;99.90;;;;;;5028241;28;20193;-63
2022/06/08 12:37:42;;;;;;;7.45;4.60;;;20.80;99.90;;;;;;5050246;28;20062;-63
2022/06/08 12:40:17;;;;;;;5.88;4.78;;;21.00;99.90;;;;;;5056878;28;20060;-63
2022/06/08 12:43:10;;;;;;;7.50;4.57;;;21.20;99.90;;;;;;5036613;28;20060;-65
2022/06/08 12:45:45;;;;;;;12.10;5.53;;;21.10;99.90;;;;;;5027118;28;20048;-65
2022/06/08 12:48:28;;;;;;;9.68;5.45;;;21.00;99.90;;;;;;5045763;28;21092;-64
2022/06/08 12:50:56;;;;;;;11.05;5.07;;;20.80;99.90;;;;;;5043209;28;20052;-64
2022/06/08 12:53:22;;;;;;;5.57;4.10;;;20.60;99.90;;;;;;5062647;28;20055;-64
2022/06/08 12:55:52;;;;;;;5.38;3.53;;;20.30;99.90;;;;;;5052413;28;20049;-64
2022/06/08 12:58:18;;;;;;;4.85;2.60;;;20.00;99.90;;;;;;5047353;28;20152;-64
2022/06/08 13:00:53;;;;;;;5.82;2.33;;;19.70;99.90;;;;;;5040973;28;20052;-64
2022/06/08 13:03:26;;;;;;;3.60;1.80;;;19.50;99.90;;;;;;5045231;28;20189;-66
2022/06/08 13:05:54;;;;;;;5.63;1.90;;;19.40;99.90;;;;;;5046525;28;20040;-65
2022/06/08 13:08:23;;;;;;;3.53;1.48;;;19.20;99.90;;;;;;5047359;28;20044;-65
2022/06/08 13:10:51;;;;;;;3.28;1.40;;;19.00;99.90;;;;;;5037786;28;20341;-63
2022/06/08 13:13:28;;;;;;;3.10;1.50;;;18.90;99.90;;;;;;5021687;28;20082;-65
2022/06/08 13:15:57;;;;;;;4.80;1.90;;;18.80;99.90;;;;;;5038413;28;20198;-63
2022/06/08 13:18:26;;;;;;;4.38;2.13;;;18.70;99.90;;;;;;5055239;28;20053;-64
2022/06/08 13:20:55;;;;;;;5.47;2.03;;;18.60;99.90;;;;;;5041098;28;20056;-63